sensor_id;sensor_type;location;lat;lon;timestamp;P1;durP1;ratioP1;P2;durP2;ratioP2
4448;SDS011;2237;51.870;6.160;2024-01-15T00:00:56;6.47;;;2.88;;
4448;SDS011;2237;51.870;6.160;2024-01-15T00:03:22;7.88;;;2.15;;
4448;SDS011;2237;51.870;6.160;2024-01-15T00:05:49;7.72;;;2.50;;
4448;SDS011;2237;51.870;6.160;2024-01-15T00:08:15;4.00;;;1.80;;
4448;SDS011;2237;51.870;6.160;2024-01-15T00:10:41;7.43;;;1.73;;
4448;SDS011;2237;51.870;6.160;2024-01-15T00:13:08;4.90;;;1.60;;
4448;SDS011;2237;51.870;6.160;2024-01-15T00:15:34;3.15;;;1.20;;
4448;SDS011;2237;51.870;6.160;2024-01-15T00:18:01;5.00;;;1.00;;
4448;SDS011;2237;51.870;6.160;2024-01-15T00:20:27;4.07;;;1.00;;
4448;SDS011;2237;51.870;6.160;2024-01-15T00:22:56;3.17;;;1.00;;
4448;SDS011;2237;51.870;6.160;2024-01-15T00:25:22;2.05;;;0.73;;
4448;SDS011;2237;51.870;6.160;2024-01-15T00:27:49;3.95;;;1.00;;
4448;SDS011;2237;51.870;6.160;2024-01-15T00:30:16;5.47;;;0.82;;
4448;SDS011;2237;51.870;6.160;2024-01-15T00:32:43;2.80;;;0.60;;
4448;SDS011;2237;51.870;6.160;2024-01-15T00:35:09;0.90;;;0.30;;
4448;SDS011;2237;51.870;6.160;2024-01-15T00:37:35;3.78;;;1.38;;
4448;SDS011;2237;51.870;6.160;2024-01-15T00:40:02;2.30;;;0.43;;
4448;SDS011;2237;51.870;6.160;2024-01-15T00:42:28;4.43;;;1.15;;
4448;SDS011;2237;51.870;6.160;2024-01-15T00:44:55;2.92;;;0.30;;
4448;SDS011;2237;51.870;6.160;2024-01-15T00:47:21;1.63;;;0.47;;
4448;SDS011;2237;51.870;6.160;2024-01-15T00:49:47;0.57;;;0.10;;
4448;SDS011;2237;51.870;6.160;2024-01-15T00:52:14;1.70;;;0.45;;
4448;SDS011;2237;51.870;6.160;2024-01-15T00:54:40;4.32;;;0.50;;
4448;SDS011;2237;51.870;6.160;2024-01-15T00:57:06;2.38;;;0.22;;
4448;SDS011;2237;51.870;6.160;2024-01-15T00:59:33;6.45;;;0.82;;
4448;SDS011;2237;51.870;6.160;2024-01-15T01:01:59;1.75;;;0.30;;
4448;SDS011;2237;51.870;6.160;2024-01-15T01:04:25;0.63;;;0.30;;
4448;SDS011;2237;51.870;6.160;2024-01-15T01:06:52;3.65;;;0.60;;
4448;SDS011;2237;51.870;6.160;2024-01-15T01:09:18;0.40;;;0.13;;
4448;SDS011;2237;51.870;6.160;2024-01-15T01:11:44;4.25;;;0.63;;
4448;SDS011;2237;51.870;6.160;2024-01-15T01:14:11;5.10;;;0.63;;
4448;SDS011;2237;51.870;6.160;2024-01-15T01:16:37;4.05;;;0.60;;
4448;SDS011;2237;51.870;6.160;2024-01-15T01:19:05;1.65;;;0.40;;
4448;SDS011;2237;51.870;6.160;2024-01-15T01:21:33;4.53;;;0.68;;
4448;SDS011;2237;51.870;6.160;2024-01-15T01:24:00;2.13;;;0.90;;
4448;SDS011;2237;51.870;6.160;2024-01-15T01:26:26;2.40;;;0.60;;
4448;SDS011;2237;51.870;6.160;2024-01-15T01:28:52;2.55;;;0.70;;
4448;SDS011;2237;51.870;6.160;2024-01-15T01:31:19;2.85;;;0.73;;
4448;SDS011;2237;51.870;6.160;2024-01-15T01:33:45;4.72;;;0.80;;
4448;SDS011;2237;51.870;6.160;2024-01-15T01:36:11;9.30;;;1.40;;
4448;SDS011;2237;51.870;6.160;2024-01-15T01:38:39;5.85;;;1.90;;
4448;SDS011;2237;51.870;6.160;2024-01-15T01:41:06;5.93;;;1.05;;
4448;SDS011;2237;51.870;6.160;2024-01-15T01:43:32;2.53;;;0.93;;
4448;SDS011;2237;51.870;6.160;2024-01-15T01:45:59;8.70;;;1.35;;
4448;SDS011;2237;51.870;6.160;2024-01-15T01:48:26;2.75;;;0.90;;
4448;SDS011;2237;51.870;6.160;2024-01-15T01:50:54;4.05;;;1.05;;
4448;SDS011;2237;51.870;6.160;2024-01-15T01:53:21;3.90;;;1.15;;
4448;SDS011;2237;51.870;6.160;2024-01-15T01:55:47;6.20;;;1.55;;
4448;SDS011;2237;51.870;6.160;2024-01-15T01:58:14;4.78;;;1.48;;
4448;SDS011;2237;51.870;6.160;2024-01-15T02:00:41;5.47;;;1.40;;
4448;SDS011;2237;51.870;6.160;2024-01-15T02:03:07;5.28;;;1.50;;
4448;SDS011;2237;51.870;6.160;2024-01-15T02:05:34;5.03;;;1.20;;
4448;SDS011;2237;51.870;6.160;2024-01-15T02:08:01;6.72;;;1.15;;
4448;SDS011;2237;51.870;6.160;2024-01-15T02:10:27;2.03;;;0.55;;
4448;SDS011;2237;51.870;6.160;2024-01-15T02:12:54;1.52;;;0.80;;
4448;SDS011;2237;51.870;6.160;2024-01-15T02:15:20;4.75;;;1.20;;
4448;SDS011;2237;51.870;6.160;2024-01-15T02:17:56;4.57;;;1.30;;
4448;SDS011;2237;51.870;6.160;2024-01-15T02:20:22;5.57;;;1.30;;
4448;SDS011;2237;51.870;6.160;2024-01-15T02:22:49;4.57;;;1.25;;
4448;SDS011;2237;51.870;6.160;2024-01-15T02:25:15;5.53;;;1.35;;
4448;SDS011;2237;51.870;6.160;2024-01-15T02:27:42;9.00;;;0.90;;
4448;SDS011;2237;51.870;6.160;2024-01-15T02:30:08;7.97;;;1.20;;
4448;SDS011;2237;51.870;6.160;2024-01-15T02:32:36;4.80;;;1.15;;
4448;SDS011;2237;51.870;6.160;2024-01-15T02:35:02;6.47;;;1.20;;
4448;SDS011;2237;51.870;6.160;2024-01-15T02:37:29;7.35;;;0.80;;
4448;SDS011;2237;51.870;6.160;2024-01-15T02:39:55;4.10;;;1.13;;
4448;SDS011;2237;51.870;6.160;2024-01-15T02:42:21;3.30;;;1.23;;
4448;SDS011;2237;51.870;6.160;2024-01-15T02:44:47;1.45;;;0.30;;
4448;SDS011;2237;51.870;6.160;2024-01-15T02:47:14;0.57;;;0.30;;
4448;SDS011;2237;51.870;6.160;2024-01-15T02:49:41;4.78;;;1.00;;
4448;SDS011;2237;51.870;6.160;2024-01-15T02:52:07;3.90;;;1.02;;
4448;SDS011;2237;51.870;6.160;2024-01-15T02:54:34;1.77;;;0.90;;
4448;SDS011;2237;51.870;6.160;2024-01-15T02:57:00;8.48;;;0.65;;
4448;SDS011;2237;51.870;6.160;2024-01-15T02:59:26;1.95;;;0.85;;
4448;SDS011;2237;51.870;6.160;2024-01-15T03:01:52;9.55;;;0.73;;
4448;SDS011;2237;51.870;6.160;2024-01-15T03:04:19;7.82;;;1.20;;
4448;SDS011;2237;51.870;6.160;2024-01-15T03:06:45;3.85;;;0.95;;
4448;SDS011;2237;51.870;6.160;2024-01-15T03:09:11;7.82;;;1.00;;
4448;SDS011;2237;51.870;6.160;2024-01-15T03:11:38;4.10;;;0.85;;
4448;SDS011;2237;51.870;6.160;2024-01-15T03:14:05;0.52;;;0.30;;
4448;SDS011;2237;51.870;6.160;2024-01-15T03:16:31;3.72;;;0.30;;
4448;SDS011;2237;51.870;6.160;2024-01-15T03:18:58;9.07;;;0.93;;
4448;SDS011;2237;51.870;6.160;2024-01-15T03:21:24;2.03;;;0.35;;
4448;SDS011;2237;51.870;6.160;2024-01-15T03:23:50;3.10;;;1.00;;
4448;SDS011;2237;51.870;6.160;2024-01-15T03:26:17;4.55;;;0.70;;
4448;SDS011;2237;51.870;6.160;2024-01-15T03:28:43;1.63;;;0.73;;
4448;SDS011;2237;51.870;6.160;2024-01-15T03:31:09;1.65;;;0.60;;
4448;SDS011;2237;51.870;6.160;2024-01-15T03:33:36;1.98;;;1.23;;
4448;SDS011;2237;51.870;6.160;2024-01-15T03:36:02;7.22;;;0.75;;
4448;SDS011;2237;51.870;6.160;2024-01-15T03:38:29;6.30;;;0.90;;
4448;SDS011;2237;51.870;6.160;2024-01-15T03:40:55;6.25;;;1.25;;
4448;SDS011;2237;51.870;6.160;2024-01-15T03:43:21;4.20;;;0.52;;
4448;SDS011;2237;51.870;6.160;2024-01-15T03:45:48;4.28;;;1.05;;
4448;SDS011;2237;51.870;6.160;2024-01-15T03:48:14;2.22;;;0.60;;
4448;SDS011;2237;51.870;6.160;2024-01-15T03:50:41;2.45;;;0.43;;
4448;SDS011;2237;51.870;6.160;2024-01-15T03:53:07;1.30;;;0.30;;
4448;SDS011;2237;51.870;6.160;2024-01-15T03:55:33;3.47;;;0.55;;
4448;SDS011;2237;51.870;6.160;2024-01-15T03:58:00;1.27;;;0.30;;
4448;SDS011;2237;51.870;6.160;2024-01-15T04:00:27;4.93;;;0.80;;
4448;SDS011;2237;51.870;6.160;2024-01-15T04:02:53;1.85;;;0.50;;
4448;SDS011;2237;51.870;6.160;2024-01-15T04:05:20;4.13;;;0.50;;
4448;SDS011;2237;51.870;6.160;2024-01-15T04:07:46;3.60;;;1.00;;
4448;SDS011;2237;51.870;6.160;2024-01-15T04:10:12;6.03;;;0.90;;
4448;SDS011;2237;51.870;6.160;2024-01-15T04:12:39;4.47;;;0.73;;
4448;SDS011;2237;51.870;6.160;2024-01-15T04:15:05;4.20;;;0.95;;
4448;SDS011;2237;51.870;6.160;2024-01-15T04:17:32;2.00;;;0.70;;
4448;SDS011;2237;51.870;6.160;2024-01-15T04:19:58;5.20;;;1.00;;
4448;SDS011;2237;51.870;6.160;2024-01-15T04:22:25;1.00;;;0.57;;
4448;SDS011;2237;51.870;6.160;2024-01-15T04:24:51;3.92;;;1.30;;
4448;SDS011;2237;51.870;6.160;2024-01-15T04:27:18;9.35;;;0.90;;
4448;SDS011;2237;51.870;6.160;2024-01-15T04:29:44;4.68;;;1.25;;
4448;SDS011;2237;51.870;6.160;2024-01-15T04:32:11;6.90;;;1.50;;
4448;SDS011;2237;51.870;6.160;2024-01-15T04:34:37;9.48;;;1.10;;
4448;SDS011;2237;51.870;6.160;2024-01-15T04:37:03;5.53;;;1.00;;
4448;SDS011;2237;51.870;6.160;2024-01-15T04:39:30;12.38;;;1.70;;
4448;SDS011;2237;51.870;6.160;2024-01-15T04:41:56;3.92;;;0.82;;
4448;SDS011;2237;51.870;6.160;2024-01-15T04:44:22;6.38;;;1.55;;
4448;SDS011;2237;51.870;6.160;2024-01-15T04:46:49;3.10;;;0.75;;
4448;SDS011;2237;51.870;6.160;2024-01-15T04:49:15;2.30;;;0.85;;
4448;SDS011;2237;51.870;6.160;2024-01-15T04:51:42;6.82;;;0.90;;
4448;SDS011;2237;51.870;6.160;2024-01-15T04:54:08;3.85;;;0.93;;
4448;SDS011;2237;51.870;6.160;2024-01-15T04:56:34;5.32;;;0.93;;
4448;SDS011;2237;51.870;6.160;2024-01-15T04:59:01;7.47;;;0.88;;
4448;SDS011;2237;51.870;6.160;2024-01-15T05:01:30;6.50;;;0.98;;
4448;SDS011;2237;51.870;6.160;2024-01-15T05:03:56;1.52;;;0.70;;
4448;SDS011;2237;51.870;6.160;2024-01-15T05:06:25;2.92;;;0.75;;
4448;SDS011;2237;51.870;6.160;2024-01-15T05:08:51;4.50;;;1.00;;
4448;SDS011;2237;51.870;6.160;2024-01-15T05:11:18;1.92;;;0.50;;
4448;SDS011;2237;51.870;6.160;2024-01-15T05:13:44;3.45;;;0.80;;
4448;SDS011;2237;51.870;6.160;2024-01-15T05:16:10;2.05;;;0.47;;
4448;SDS011;2237;51.870;6.160;2024-01-15T05:18:37;5.82;;;1.38;;
4448;SDS011;2237;51.870;6.160;2024-01-15T05:21:03;0.98;;;0.55;;
4448;SDS011;2237;51.870;6.160;2024-01-15T05:23:30;2.85;;;0.60;;
4448;SDS011;2237;51.870;6.160;2024-01-15T05:25:57;7.95;;;0.70;;
4448;SDS011;2237;51.870;6.160;2024-01-15T05:28:23;2.95;;;0.75;;
4448;SDS011;2237;51.870;6.160;2024-01-15T05:30:49;4.53;;;0.50;;
4448;SDS011;2237;51.870;6.160;2024-01-15T05:33:16;1.08;;;0.40;;
4448;SDS011;2237;51.870;6.160;2024-01-15T05:35:43;7.30;;;0.88;;
4448;SDS011;2237;51.870;6.160;2024-01-15T05:38:09;1.52;;;0.45;;
4448;SDS011;2237;51.870;6.160;2024-01-15T05:40:36;2.63;;;0.80;;
4448;SDS011;2237;51.870;6.160;2024-01-15T05:43:02;0.50;;;0.38;;
4448;SDS011;2237;51.870;6.160;2024-01-15T05:45:30;4.85;;;0.80;;
4448;SDS011;2237;51.870;6.160;2024-01-15T05:47:56;4.15;;;0.80;;
4448;SDS011;2237;51.870;6.160;2024-01-15T05:50:22;2.42;;;0.93;;
4448;SDS011;2237;51.870;6.160;2024-01-15T05:52:49;3.47;;;0.80;;
4448;SDS011;2237;51.870;6.160;2024-01-15T05:55:15;3.90;;;0.98;;
4448;SDS011;2237;51.870;6.160;2024-01-15T05:57:41;2.63;;;1.05;;
4448;SDS011;2237;51.870;6.160;2024-01-15T06:00:08;1.10;;;0.50;;
4448;SDS011;2237;51.870;6.160;2024-01-15T06:02:36;3.22;;;1.20;;
4448;SDS011;2237;51.870;6.160;2024-01-15T06:05:03;3.03;;;0.57;;
4448;SDS011;2237;51.870;6.160;2024-01-15T06:07:29;2.75;;;0.80;;
4448;SDS011;2237;51.870;6.160;2024-01-15T06:09:55;1.73;;;0.70;;
4448;SDS011;2237;51.870;6.160;2024-01-15T06:12:23;1.23;;;0.75;;
4448;SDS011;2237;51.870;6.160;2024-01-15T06:14:49;2.33;;;0.85;;
4448;SDS011;2237;51.870;6.160;2024-01-15T06:17:15;1.45;;;0.57;;
4448;SDS011;2237;51.870;6.160;2024-01-15T06:19:42;3.13;;;0.57;;
4448;SDS011;2237;51.870;6.160;2024-01-15T06:22:08;9.45;;;1.45;;
4448;SDS011;2237;51.870;6.160;2024-01-15T06:24:34;1.98;;;0.43;;
4448;SDS011;2237;51.870;6.160;2024-01-15T06:27:01;0.35;;;0.20;;
4448;SDS011;2237;51.870;6.160;2024-01-15T06:29:27;1.38;;;0.77;;
4448;SDS011;2237;51.870;6.160;2024-01-15T06:31:54;1.17;;;0.55;;
4448;SDS011;2237;51.870;6.160;2024-01-15T06:34:20;1.88;;;0.52;;
4448;SDS011;2237;51.870;6.160;2024-01-15T06:36:47;0.25;;;0.20;;
4448;SDS011;2237;51.870;6.160;2024-01-15T06:39:13;0.75;;;0.32;;
4448;SDS011;2237;51.870;6.160;2024-01-15T06:41:40;1.30;;;0.57;;
4448;SDS011;2237;51.870;6.160;2024-01-15T06:44:10;0.60;;;0.57;;
4448;SDS011;2237;51.870;6.160;2024-01-15T06:46:43;0.85;;;0.50;;
4448;SDS011;2237;51.870;6.160;2024-01-15T06:49:10;1.55;;;1.10;;
4448;SDS011;2237;51.870;6.160;2024-01-15T06:51:36;1.67;;;0.73;;
4448;SDS011;2237;51.870;6.160;2024-01-15T06:54:03;1.40;;;0.80;;
4448;SDS011;2237;51.870;6.160;2024-01-15T06:56:30;1.75;;;1.00;;
4448;SDS011;2237;51.870;6.160;2024-01-15T06:58:57;3.28;;;1.55;;
4448;SDS011;2237;51.870;6.160;2024-01-15T07:01:23;4.32;;;2.65;;
4448;SDS011;2237;51.870;6.160;2024-01-15T07:03:49;6.20;;;2.92;;
4448;SDS011;2237;51.870;6.160;2024-01-15T07:06:16;4.93;;;2.00;;
4448;SDS011;2237;51.870;6.160;2024-01-15T07:08:43;4.05;;;2.50;;
4448;SDS011;2237;51.870;6.160;2024-01-15T07:11:09;9.48;;;4.00;;
4448;SDS011;2237;51.870;6.160;2024-01-15T07:13:36;5.63;;;2.95;;
4448;SDS011;2237;51.870;6.160;2024-01-15T07:16:02;1.77;;;1.08;;
4448;SDS011;2237;51.870;6.160;2024-01-15T07:18:29;10.57;;;3.42;;
4448;SDS011;2237;51.870;6.160;2024-01-15T07:20:55;7.38;;;3.10;;
4448;SDS011;2237;51.870;6.160;2024-01-15T07:23:21;5.60;;;2.78;;
4448;SDS011;2237;51.870;6.160;2024-01-15T07:25:48;4.07;;;1.70;;
4448;SDS011;2237;51.870;6.160;2024-01-15T07:28:14;4.53;;;2.28;;
4448;SDS011;2237;51.870;6.160;2024-01-15T07:30:40;3.67;;;1.88;;
4448;SDS011;2237;51.870;6.160;2024-01-15T07:33:07;5.68;;;2.00;;
4448;SDS011;2237;51.870;6.160;2024-01-15T07:35:33;3.15;;;1.65;;
4448;SDS011;2237;51.870;6.160;2024-01-15T07:38:00;8.43;;;3.60;;
4448;SDS011;2237;51.870;6.160;2024-01-15T07:40:26;6.78;;;3.58;;
4448;SDS011;2237;51.870;6.160;2024-01-15T07:42:52;4.82;;;1.83;;
4448;SDS011;2237;51.870;6.160;2024-01-15T07:45:19;3.25;;;1.65;;
4448;SDS011;2237;51.870;6.160;2024-01-15T07:47:45;5.82;;;3.10;;
4448;SDS011;2237;51.870;6.160;2024-01-15T07:50:12;8.00;;;2.88;;
4448;SDS011;2237;51.870;6.160;2024-01-15T07:52:39;4.97;;;2.33;;
4448;SDS011;2237;51.870;6.160;2024-01-15T07:55:05;4.55;;;2.40;;
4448;SDS011;2237;51.870;6.160;2024-01-15T07:57:32;5.07;;;2.60;;
4448;SDS011;2237;51.870;6.160;2024-01-15T07:59:58;3.70;;;2.03;;
4448;SDS011;2237;51.870;6.160;2024-01-15T08:02:24;8.88;;;2.85;;
4448;SDS011;2237;51.870;6.160;2024-01-15T08:04:51;1.88;;;1.02;;
4448;SDS011;2237;51.870;6.160;2024-01-15T08:07:17;2.22;;;1.05;;
4448;SDS011;2237;51.870;6.160;2024-01-15T08:09:44;2.45;;;1.30;;
4448;SDS011;2237;51.870;6.160;2024-01-15T08:12:10;2.38;;;1.23;;
4448;SDS011;2237;51.870;6.160;2024-01-15T08:14:37;2.97;;;1.50;;
4448;SDS011;2237;51.870;6.160;2024-01-15T08:17:04;3.20;;;1.20;;
4448;SDS011;2237;51.870;6.160;2024-01-15T08:19:30;1.55;;;0.75;;
4448;SDS011;2237;51.870;6.160;2024-01-15T08:21:57;2.97;;;1.20;;
4448;SDS011;2237;51.870;6.160;2024-01-15T08:24:24;2.40;;;0.90;;
4448;SDS011;2237;51.870;6.160;2024-01-15T08:26:50;2.78;;;0.80;;
4448;SDS011;2237;51.870;6.160;2024-01-15T08:29:16;1.67;;;0.80;;
4448;SDS011;2237;51.870;6.160;2024-01-15T08:31:44;3.67;;;1.40;;
4448;SDS011;2237;51.870;6.160;2024-01-15T08:34:11;1.33;;;0.57;;
4448;SDS011;2237;51.870;6.160;2024-01-15T08:36:38;0.63;;;0.40;;
4448;SDS011;2237;51.870;6.160;2024-01-15T08:39:04;0.43;;;0.30;;
4448;SDS011;2237;51.870;6.160;2024-01-15T08:41:31;1.55;;;0.50;;
4448;SDS011;2237;51.870;6.160;2024-01-15T08:43:58;2.88;;;1.10;;
4448;SDS011;2237;51.870;6.160;2024-01-15T08:46:24;1.70;;;0.77;;
4448;SDS011;2237;51.870;6.160;2024-01-15T08:48:50;1.98;;;0.95;;
4448;SDS011;2237;51.870;6.160;2024-01-15T08:51:17;3.42;;;1.65;;
4448;SDS011;2237;51.870;6.160;2024-01-15T08:53:45;2.60;;;1.20;;
4448;SDS011;2237;51.870;6.160;2024-01-15T08:56:11;3.05;;;1.45;;
4448;SDS011;2237;51.870;6.160;2024-01-15T08:58:37;2.35;;;0.88;;
4448;SDS011;2237;51.870;6.160;2024-01-15T09:01:03;3.20;;;1.40;;
4448;SDS011;2237;51.870;6.160;2024-01-15T09:03:30;5.75;;;1.48;;
4448;SDS011;2237;51.870;6.160;2024-01-15T09:05:57;0.75;;;0.50;;
4448;SDS011;2237;51.870;6.160;2024-01-15T09:08:23;1.40;;;0.95;;
4448;SDS011;2237;51.870;6.160;2024-01-15T09:10:50;2.53;;;0.60;;
4448;SDS011;2237;51.870;6.160;2024-01-15T09:13:16;1.10;;;0.50;;
4448;SDS011;2237;51.870;6.160;2024-01-15T09:15:42;0.95;;;0.35;;
4448;SDS011;2237;51.870;6.160;2024-01-15T09:18:09;0.43;;;0.25;;
4448;SDS011;2237;51.870;6.160;2024-01-15T09:20:36;1.88;;;0.68;;
4448;SDS011;2237;51.870;6.160;2024-01-15T09:23:02;1.08;;;0.35;;
4448;SDS011;2237;51.870;6.160;2024-01-15T09:25:29;4.38;;;0.85;;
4448;SDS011;2237;51.870;6.160;2024-01-15T09:27:55;3.75;;;1.48;;
4448;SDS011;2237;51.870;6.160;2024-01-15T09:30:21;0.47;;;0.22;;
4448;SDS011;2237;51.870;6.160;2024-01-15T09:32:48;2.60;;;0.95;;
4448;SDS011;2237;51.870;6.160;2024-01-15T09:35:14;2.30;;;1.15;;
4448;SDS011;2237;51.870;6.160;2024-01-15T09:37:41;1.20;;;0.70;;
4448;SDS011;2237;51.870;6.160;2024-01-15T09:40:13;2.08;;;0.85;;
4448;SDS011;2237;51.870;6.160;2024-01-15T09:42:41;2.20;;;0.85;;
4448;SDS011;2237;51.870;6.160;2024-01-15T09:45:08;1.42;;;0.73;;
4448;SDS011;2237;51.870;6.160;2024-01-15T09:47:36;1.60;;;0.40;;
4448;SDS011;2237;51.870;6.160;2024-01-15T09:50:05;2.35;;;0.30;;
4448;SDS011;2237;51.870;6.160;2024-01-15T09:52:31;1.30;;;0.47;;
4448;SDS011;2237;51.870;6.160;2024-01-15T09:54:59;2.35;;;0.65;;
4448;SDS011;2237;51.870;6.160;2024-01-15T09:57:27;2.10;;;0.57;;
4448;SDS011;2237;51.870;6.160;2024-01-15T09:59:54;8.77;;;0.60;;
4448;SDS011;2237;51.870;6.160;2024-01-15T10:02:20;0.93;;;0.38;;
4448;SDS011;2237;51.870;6.160;2024-01-15T10:04:47;4.20;;;0.60;;
4448;SDS011;2237;51.870;6.160;2024-01-15T10:07:15;1.15;;;0.43;;
4448;SDS011;2237;51.870;6.160;2024-01-15T10:09:46;0.93;;;0.82;;
4448;SDS011;2237;51.870;6.160;2024-01-15T10:12:12;1.58;;;0.28;;
4448;SDS011;2237;51.870;6.160;2024-01-15T10:14:39;0.75;;;0.20;;
4448;SDS011;2237;51.870;6.160;2024-01-15T10:17:15;0.70;;;0.40;;
4448;SDS011;2237;51.870;6.160;2024-01-15T10:19:41;0.13;;;0.13;;
4448;SDS011;2237;51.870;6.160;2024-01-15T10:22:14;1.05;;;0.35;;
4448;SDS011;2237;51.870;6.160;2024-01-15T10:24:40;0.20;;;0.20;;
4448;SDS011;2237;51.870;6.160;2024-01-15T10:27:10;1.42;;;0.30;;
4448;SDS011;2237;51.870;6.160;2024-01-15T10:29:37;2.83;;;1.03;;
4448;SDS011;2237;51.870;6.160;2024-01-15T10:32:06;1.83;;;0.50;;
4448;SDS011;2237;51.870;6.160;2024-01-15T10:34:33;0.43;;;0.17;;
4448;SDS011;2237;51.870;6.160;2024-01-15T10:37:01;1.88;;;0.22;;
4448;SDS011;2237;51.870;6.160;2024-01-15T10:39:29;2.55;;;0.70;;
4448;SDS011;2237;51.870;6.160;2024-01-15T10:41:55;1.38;;;0.40;;
4448;SDS011;2237;51.870;6.160;2024-01-15T10:44:22;0.95;;;0.55;;
4448;SDS011;2237;51.870;6.160;2024-01-15T10:46:48;3.88;;;0.50;;
4448;SDS011;2237;51.870;6.160;2024-01-15T10:49:14;1.52;;;0.57;;
4448;SDS011;2237;51.870;6.160;2024-01-15T10:51:41;1.13;;;0.30;;
4448;SDS011;2237;51.870;6.160;2024-01-15T10:54:08;1.00;;;0.60;;
4448;SDS011;2237;51.870;6.160;2024-01-15T10:56:37;2.42;;;0.65;;
4448;SDS011;2237;51.870;6.160;2024-01-15T10:59:03;9.23;;;2.33;;
4448;SDS011;2237;51.870;6.160;2024-01-15T11:01:30;1.35;;;0.45;;
4448;SDS011;2237;51.870;6.160;2024-01-15T11:03:57;2.30;;;1.17;;
4448;SDS011;2237;51.870;6.160;2024-01-15T11:06:24;2.28;;;0.55;;
4448;SDS011;2237;51.870;6.160;2024-01-15T11:08:51;4.45;;;1.27;;
4448;SDS011;2237;51.870;6.160;2024-01-15T11:11:18;3.63;;;1.58;;
4448;SDS011;2237;51.870;6.160;2024-01-15T11:13:47;4.00;;;0.98;;
4448;SDS011;2237;51.870;6.160;2024-01-15T11:16:16;2.17;;;1.27;;
4448;SDS011;2237;51.870;6.160;2024-01-15T11:21:27;1.02;;;0.90;;
4448;SDS011;2237;51.870;6.160;2024-01-15T11:26:30;3.08;;;1.60;;
4448;SDS011;2237;51.870;6.160;2024-01-15T11:28:57;2.05;;;0.80;;
4448;SDS011;2237;51.870;6.160;2024-01-15T11:31:26;9.82;;;1.83;;
4448;SDS011;2237;51.870;6.160;2024-01-15T11:33:53;3.45;;;1.40;;
4448;SDS011;2237;51.870;6.160;2024-01-15T11:36:19;0.47;;;0.40;;
4448;SDS011;2237;51.870;6.160;2024-01-15T11:38:46;4.40;;;1.98;;
4448;SDS011;2237;51.870;6.160;2024-01-15T11:41:15;1.25;;;0.30;;
4448;SDS011;2237;51.870;6.160;2024-01-15T11:43:44;2.45;;;0.82;;
4448;SDS011;2237;51.870;6.160;2024-01-15T11:46:11;2.25;;;0.88;;
4448;SDS011;2237;51.870;6.160;2024-01-15T11:48:44;2.05;;;1.08;;
4448;SDS011;2237;51.870;6.160;2024-01-15T11:51:11;2.20;;;0.95;;
4448;SDS011;2237;51.870;6.160;2024-01-15T11:56:10;3.88;;;1.02;;
4448;SDS011;2237;51.870;6.160;2024-01-15T11:58:38;2.55;;;1.02;;
4448;SDS011;2237;51.870;6.160;2024-01-15T12:01:04;4.57;;;1.98;;
4448;SDS011;2237;51.870;6.160;2024-01-15T12:03:31;7.72;;;2.28;;
4448;SDS011;2237;51.870;6.160;2024-01-15T12:05:58;1.85;;;0.77;;
4448;SDS011;2237;51.870;6.160;2024-01-15T12:08:26;5.50;;;1.70;;
4448;SDS011;2237;51.870;6.160;2024-01-15T12:10:53;3.60;;;1.30;;
4448;SDS011;2237;51.870;6.160;2024-01-15T12:13:20;5.10;;;1.23;;
4448;SDS011;2237;51.870;6.160;2024-01-15T12:15:47;3.53;;;0.82;;
4448;SDS011;2237;51.870;6.160;2024-01-15T12:18:15;1.85;;;0.47;;
4448;SDS011;2237;51.870;6.160;2024-01-15T12:20:42;7.40;;;0.63;;
4448;SDS011;2237;51.870;6.160;2024-01-15T12:23:09;5.97;;;1.80;;
4448;SDS011;2237;51.870;6.160;2024-01-15T12:25:39;2.33;;;0.73;;
4448;SDS011;2237;51.870;6.160;2024-01-15T12:28:06;2.97;;;0.60;;
4448;SDS011;2237;51.870;6.160;2024-01-15T12:30:33;2.85;;;0.77;;
4448;SDS011;2237;51.870;6.160;2024-01-15T12:33:03;3.13;;;0.70;;
4448;SDS011;2237;51.870;6.160;2024-01-15T12:35:30;6.57;;;1.25;;
4448;SDS011;2237;51.870;6.160;2024-01-15T12:37:56;1.63;;;0.30;;
4448;SDS011;2237;51.870;6.160;2024-01-15T12:40:23;0.68;;;0.20;;
4448;SDS011;2237;51.870;6.160;2024-01-15T12:42:49;0.82;;;0.30;;
4448;SDS011;2237;51.870;6.160;2024-01-15T12:45:18;2.28;;;0.70;;
4448;SDS011;2237;51.870;6.160;2024-01-15T12:47:45;5.43;;;0.85;;
4448;SDS011;2237;51.870;6.160;2024-01-15T12:50:12;3.95;;;0.60;;
4448;SDS011;2237;51.870;6.160;2024-01-15T12:52:45;2.00;;;0.50;;
4448;SDS011;2237;51.870;6.160;2024-01-15T12:55:13;0.50;;;0.40;;
4448;SDS011;2237;51.870;6.160;2024-01-15T12:57:39;2.30;;;0.40;;
4448;SDS011;2237;51.870;6.160;2024-01-15T13:00:06;4.03;;;0.80;;
4448;SDS011;2237;51.870;6.160;2024-01-15T13:02:33;8.20;;;0.60;;
4448;SDS011;2237;51.870;6.160;2024-01-15T13:05:00;1.80;;;0.40;;
4448;SDS011;2237;51.870;6.160;2024-01-15T13:07:27;1.08;;;0.43;;
4448;SDS011;2237;51.870;6.160;2024-01-15T13:09:53;3.22;;;0.50;;
4448;SDS011;2237;51.870;6.160;2024-01-15T13:12:20;6.22;;;0.50;;
4448;SDS011;2237;51.870;6.160;2024-01-15T13:14:46;3.40;;;0.82;;
4448;SDS011;2237;51.870;6.160;2024-01-15T13:17:15;5.70;;;0.65;;
4448;SDS011;2237;51.870;6.160;2024-01-15T13:19:43;3.47;;;0.90;;
4448;SDS011;2237;51.870;6.160;2024-01-15T13:22:10;6.53;;;0.60;;
4448;SDS011;2237;51.870;6.160;2024-01-15T13:24:39;3.53;;;0.55;;
4448;SDS011;2237;51.870;6.160;2024-01-15T13:27:06;4.75;;;0.52;;
4448;SDS011;2237;51.870;6.160;2024-01-15T13:29:33;1.38;;;0.50;;
4448;SDS011;2237;51.870;6.160;2024-01-15T13:32:00;3.95;;;0.60;;
4448;SDS011;2237;51.870;6.160;2024-01-15T13:34:26;3.47;;;0.60;;
4448;SDS011;2237;51.870;6.160;2024-01-15T13:36:52;1.77;;;0.55;;
4448;SDS011;2237;51.870;6.160;2024-01-15T13:39:19;2.63;;;0.50;;
4448;SDS011;2237;51.870;6.160;2024-01-15T13:41:46;2.05;;;0.55;;
4448;SDS011;2237;51.870;6.160;2024-01-15T13:44:13;4.30;;;0.68;;
4448;SDS011;2237;51.870;6.160;2024-01-15T13:46:39;7.85;;;0.85;;
4448;SDS011;2237;51.870;6.160;2024-01-15T13:49:06;0.80;;;0.35;;
4448;SDS011;2237;51.870;6.160;2024-01-15T13:51:32;2.50;;;0.20;;
4448;SDS011;2237;51.870;6.160;2024-01-15T13:53:59;0.50;;;0.20;;
4448;SDS011;2237;51.870;6.160;2024-01-15T13:56:25;3.28;;;1.17;;
4448;SDS011;2237;51.870;6.160;2024-01-15T13:58:51;1.20;;;0.40;;
4448;SDS011;2237;51.870;6.160;2024-01-15T14:01:18;0.98;;;0.20;;
4448;SDS011;2237;51.870;6.160;2024-01-15T14:03:44;5.50;;;0.28;;
4448;SDS011;2237;51.870;6.160;2024-01-15T14:06:11;1.17;;;0.65;;
4448;SDS011;2237;51.870;6.160;2024-01-15T14:08:37;0.73;;;0.30;;
4448;SDS011;2237;51.870;6.160;2024-01-15T14:11:04;2.63;;;0.60;;
4448;SDS011;2237;51.870;6.160;2024-01-15T14:13:32;0.40;;;0.30;;
4448;SDS011;2237;51.870;6.160;2024-01-15T14:15:58;1.00;;;0.20;;
4448;SDS011;2237;51.870;6.160;2024-01-15T14:18:26;1.40;;;0.20;;
4448;SDS011;2237;51.870;6.160;2024-01-15T14:20:56;1.15;;;0.20;;
4448;SDS011;2237;51.870;6.160;2024-01-15T14:23:23;6.88;;;0.50;;
4448;SDS011;2237;51.870;6.160;2024-01-15T14:25:49;0.88;;;0.20;;
4448;SDS011;2237;51.870;6.160;2024-01-15T14:28:16;5.32;;;0.88;;
4448;SDS011;2237;51.870;6.160;2024-01-15T14:30:42;2.05;;;0.20;;
4448;SDS011;2237;51.870;6.160;2024-01-15T14:33:08;1.88;;;0.40;;
4448;SDS011;2237;51.870;6.160;2024-01-15T14:35:35;2.10;;;1.15;;
4448;SDS011;2237;51.870;6.160;2024-01-15T14:38:02;2.35;;;0.30;;
4448;SDS011;2237;51.870;6.160;2024-01-15T14:40:28;0.77;;;0.30;;
4448;SDS011;2237;51.870;6.160;2024-01-15T14:42:56;7.65;;;0.60;;
4448;SDS011;2237;51.870;6.160;2024-01-15T14:45:22;3.90;;;0.30;;
4448;SDS011;2237;51.870;6.160;2024-01-15T14:47:48;2.95;;;0.70;;
4448;SDS011;2237;51.870;6.160;2024-01-15T14:50:15;10.45;;;0.45;;
4448;SDS011;2237;51.870;6.160;2024-01-15T14:52:41;1.30;;;0.32;;
4448;SDS011;2237;51.870;6.160;2024-01-15T14:55:09;2.05;;;0.47;;
4448;SDS011;2237;51.870;6.160;2024-01-15T14:57:35;1.33;;;0.38;;
4448;SDS011;2237;51.870;6.160;2024-01-15T15:00:03;3.85;;;0.50;;
4448;SDS011;2237;51.870;6.160;2024-01-15T15:02:33;2.00;;;0.85;;
4448;SDS011;2237;51.870;6.160;2024-01-15T15:05:01;1.58;;;0.60;;
4448;SDS011;2237;51.870;6.160;2024-01-15T15:07:27;3.63;;;0.55;;
4448;SDS011;2237;51.870;6.160;2024-01-15T15:09:54;2.08;;;0.50;;
4448;SDS011;2237;51.870;6.160;2024-01-15T15:12:20;0.85;;;0.47;;
4448;SDS011;2237;51.870;6.160;2024-01-15T15:14:47;2.67;;;0.40;;
4448;SDS011;2237;51.870;6.160;2024-01-15T15:17:28;2.95;;;0.50;;
4448;SDS011;2237;51.870;6.160;2024-01-15T15:19:55;1.20;;;0.40;;